sensor_id;sensor_type;location;lat;lon;timestamp;temperature;humidity
11597;DHT22;5854;48.072;16.286;2023-05-24T04:15:20;16.20;71.40
11597;DHT22;5854;48.072;16.286;2023-05-24T04:22:50;16.20;69.80
11597;DHT22;5854;48.072;16.286;2023-05-24T04:25:24;16.10;71.40
11597;DHT22;5854;48.072;16.286;2023-05-24T04:33:04;16.50;71.20
11597;DHT22;5854;48.072;16.286;2023-05-24T04:38:01;16.70;69.00
11597;DHT22;5854;48.072;16.286;2023-05-24T04:40:33;16.80;67.20
11597;DHT22;5854;48.072;16.286;2023-05-24T04:48:25;16.80;67.20
11597;DHT22;5854;48.072;16.286;2023-05-24T04:58:43;16.80;67.40
11597;DHT22;5854;48.072;16.286;2023-05-24T05:12:19;16.90;67.50
11597;DHT22;5854;48.072;16.286;2023-05-24T05:14:54;16.90;67.60
11597;DHT22;5854;48.072;16.286;2023-05-24T05:24:54;16.80;67.40
11597;DHT22;5854;48.072;16.286;2023-05-24T05:27:21;17.00;67.10
11597;DHT22;5854;48.072;16.286;2023-05-24T05:32:24;17.30;63.40
11597;DHT22;5854;48.072;16.286;2023-05-24T05:34:53;17.40;64.90
11597;DHT22;5854;48.072;16.286;2023-05-24T10:57:00;20.50;52.30
11597;DHT22;5854;48.072;16.286;2023-05-24T10:59:31;20.60;49.70
11597;DHT22;5854;48.072;16.286;2023-05-24T11:04:31;21.00;50.40
11597;DHT22;5854;48.072;16.286;2023-05-24T11:07:01;21.00;49.50
11597;DHT22;5854;48.072;16.286;2023-05-24T11:09:30;20.90;47.80
11597;DHT22;5854;48.072;16.286;2023-05-24T11:12:06;20.70;51.30
11597;DHT22;5854;48.072;16.286;2023-05-24T11:14:37;20.60;50.60
11597;DHT22;5854;48.072;16.286;2023-05-24T11:22:12;20.40;50.30
11597;DHT22;5854;48.072;16.286;2023-05-24T11:24:41;20.30;50.20
11597;DHT22;5854;48.072;16.286;2023-05-24T11:27:12;20.40;49.20
11597;DHT22;5854;48.072;16.286;2023-05-24T11:29:41;20.70;51.30
11597;DHT22;5854;48.072;16.286;2023-05-24T11:32:15;20.80;51.70
11597;DHT22;5854;48.072;16.286;2023-05-24T11:34:46;20.80;50.40
11597;DHT22;5854;48.072;16.286;2023-05-24T11:37:14;20.80;51.10
11597;DHT22;5854;48.072;16.286;2023-05-24T11:39:41;20.80;49.10
11597;DHT22;5854;48.072;16.286;2023-05-24T11:42:10;20.90;48.60
11597;DHT22;5854;48.072;16.286;2023-05-24T11:44:37;20.80;47.90
11597;DHT22;5854;48.072;16.286;2023-05-24T11:47:05;20.80;49.50
11597;DHT22;5854;48.072;16.286;2023-05-24T11:49:33;20.90;47.00
11597;DHT22;5854;48.072;16.286;2023-05-24T11:52:01;21.20;47.90
11597;DHT22;5854;48.072;16.286;2023-05-24T11:54:29;21.40;48.20
11597;DHT22;5854;48.072;16.286;2023-05-24T11:56:57;21.20;44.40
11597;DHT22;5854;48.072;16.286;2023-05-24T11:59:27;21.10;47.10
11597;DHT22;5854;48.072;16.286;2023-05-24T12:01:59;20.90;46.00
11597;DHT22;5854;48.072;16.286;2023-05-24T12:04:27;21.20;48.60
11597;DHT22;5854;48.072;16.286;2023-05-24T12:06:55;21.80;45.30
11597;DHT22;5854;48.072;16.286;2023-05-24T12:11:59;23.30;43.80
11597;DHT22;5854;48.072;16.286;2023-05-24T12:22:04;21.80;43.80
11597;DHT22;5854;48.072;16.286;2023-05-24T12:24:36;21.50;48.50
11597;DHT22;5854;48.072;16.286;2023-05-24T12:27:11;21.30;45.00
11597;DHT22;5854;48.072;16.286;2023-05-24T12:32:16;21.30;48.80
11597;DHT22;5854;48.072;16.286;2023-05-24T12:34:44;21.20;46.90
11597;DHT22;5854;48.072;16.286;2023-05-24T12:47:37;21.50;48.90
11597;DHT22;5854;48.072;16.286;2023-05-24T13:11:15;20.80;49.50
11597;DHT22;5854;48.072;16.286;2023-05-24T13:13:45;20.80;50.20
11597;DHT22;5854;48.072;16.286;2023-05-24T13:16:16;20.70;46.90
11597;DHT22;5854;48.072;16.286;2023-05-24T13:36:54;21.00;51.60
11597;DHT22;5854;48.072;16.286;2023-05-24T13:39:22;21.00;50.90
11597;DHT22;5854;48.072;16.286;2023-05-24T13:41:51;21.00;50.90
11597;DHT22;5854;48.072;16.286;2023-05-24T13:44:21;20.70;47.80
11597;DHT22;5854;48.072;16.286;2023-05-24T13:46:50;20.80;48.90
11597;DHT22;5854;48.072;16.286;2023-05-24T13:49:18;20.90;49.00
11597;DHT22;5854;48.072;16.286;2023-05-24T13:51:57;21.10;50.20
11597;DHT22;5854;48.072;16.286;2023-05-24T13:54:26;21.20;48.90
11597;DHT22;5854;48.072;16.286;2023-05-24T13:56:57;21.20;48.40
11597;DHT22;5854;48.072;16.286;2023-05-24T13:59:27;21.10;51.20
11597;DHT22;5854;48.072;16.286;2023-05-24T14:01:55;21.20;49.60
11597;DHT22;5854;48.072;16.286;2023-05-24T14:04:24;21.40;48.00
11597;DHT22;5854;48.072;16.286;2023-05-24T14:06:51;21.40;47.60
11597;DHT22;5854;48.072;16.286;2023-05-24T14:09:19;21.60;47.30
11597;DHT22;5854;48.072;16.286;2023-05-24T14:11:46;21.60;47.60
11597;DHT22;5854;48.072;16.286;2023-05-24T14:14:13;21.60;47.40
11597;DHT22;5854;48.072;16.286;2023-05-24T14:16:40;21.70;48.60
11597;DHT22;5854;48.072;16.286;2023-05-24T14:19:07;21.60;48.20
11597;DHT22;5854;48.072;16.286;2023-05-24T14:21:35;21.50;45.10
11597;DHT22;5854;48.072;16.286;2023-05-24T14:24:02;21.60;49.00
11597;DHT22;5854;48.072;16.286;2023-05-24T14:26:31;21.80;45.40
11597;DHT22;5854;48.072;16.286;2023-05-24T14:28:58;21.90;46.80
11597;DHT22;5854;48.072;16.286;2023-05-24T14:31:26;22.20;49.40
11597;DHT22;5854;48.072;16.286;2023-05-24T14:33:59;22.20;48.20
11597;DHT22;5854;48.072;16.286;2023-05-24T14:39:04;22.40;48.00
11597;DHT22;5854;48.072;16.286;2023-05-24T14:41:34;22.40;47.40
11597;DHT22;5854;48.072;16.286;2023-05-24T14:44:01;22.60;46.10
11597;DHT22;5854;48.072;16.286;2023-05-24T14:46:28;22.70;46.40
11597;DHT22;5854;48.072;16.286;2023-05-24T14:48:56;22.60;45.70
11597;DHT22;5854;48.072;16.286;2023-05-24T14:51:26;22.50;44.10
11597;DHT22;5854;48.072;16.286;2023-05-24T14:53:55;22.30;44.60
11597;DHT22;5854;48.072;16.286;2023-05-24T14:56:25;22.30;48.80
11597;DHT22;5854;48.072;16.286;2023-05-24T14:58:55;22.70;47.90
11597;DHT22;5854;48.072;16.286;2023-05-24T15:01:22;22.70;48.00
11597;DHT22;5854;48.072;16.286;2023-05-24T15:03:49;22.70;48.30
11597;DHT22;5854;48.072;16.286;2023-05-24T15:06:17;22.70;46.20
11597;DHT22;5854;48.072;16.286;2023-05-24T15:08:44;22.60;46.60
11597;DHT22;5854;48.072;16.286;2023-05-24T15:11:12;22.60;47.90
11597;DHT22;5854;48.072;16.286;2023-05-24T15:13:43;22.60;47.00
11597;DHT22;5854;48.072;16.286;2023-05-24T15:16:13;22.40;48.00
11597;DHT22;5854;48.072;16.286;2023-05-24T15:18:41;22.40;45.40
11597;DHT22;5854;48.072;16.286;2023-05-24T15:21:08;22.40;46.60
11597;DHT22;5854;48.072;16.286;2023-05-24T15:23:36;22.50;47.30
11597;DHT22;5854;48.072;16.286;2023-05-24T15:26:08;22.60;45.30
11597;DHT22;5854;48.072;16.286;2023-05-24T15:28:35;22.50;46.50
11597;DHT22;5854;48.072;16.286;2023-05-24T15:31:02;22.40;48.00
11597;DHT22;5854;48.072;16.286;2023-05-24T15:33:31;22.50;44.40
11597;DHT22;5854;48.072;16.286;2023-05-24T15:35:58;22.60;47.60
11597;DHT22;5854;48.072;16.286;2023-05-24T15:38:26;22.50;47.30
11597;DHT22;5854;48.072;16.286;2023-05-24T15:41:04;22.30;42.80
11597;DHT22;5854;48.072;16.286;2023-05-24T15:43:35;22.60;46.60
11597;DHT22;5854;48.072;16.286;2023-05-24T15:46:08;22.60;46.40
11597;DHT22;5854;48.072;16.286;2023-05-24T15:48:37;22.60;44.70
11597;DHT22;5854;48.072;16.286;2023-05-24T15:51:04;22.70;47.30
11597;DHT22;5854;48.072;16.286;2023-05-24T15:53:32;22.70;45.60
11597;DHT22;5854;48.072;16.286;2023-05-24T15:55:59;22.70;48.40
11597;DHT22;5854;48.072;16.286;2023-05-24T15:58:26;22.60;49.30
11597;DHT22;5854;48.072;16.286;2023-05-24T16:00:53;22.40;44.90
11597;DHT22;5854;48.072;16.286;2023-05-24T16:03:20;22.10;46.00
11597;DHT22;5854;48.072;16.286;2023-05-24T16:05:48;22.20;47.80
11597;DHT22;5854;48.072;16.286;2023-05-24T16:08:16;21.90;48.10
11597;DHT22;5854;48.072;16.286;2023-05-24T16:10:44;21.70;49.00
11597;DHT22;5854;48.072;16.286;2023-05-24T16:13:11;22.10;48.90
11597;DHT22;5854;48.072;16.286;2023-05-24T16:15:38;22.00;44.00
11597;DHT22;5854;48.072;16.286;2023-05-24T16:18:07;21.90;42.70
11597;DHT22;5854;48.072;16.286;2023-05-24T16:20:34;21.80;44.60
11597;DHT22;5854;48.072;16.286;2023-05-24T16:23:03;22.00;43.70
11597;DHT22;5854;48.072;16.286;2023-05-24T16:25:30;22.00;44.80
11597;DHT22;5854;48.072;16.286;2023-05-24T16:27:57;22.00;43.40
11597;DHT22;5854;48.072;16.286;2023-05-24T16:30:24;22.00;44.10
11597;DHT22;5854;48.072;16.286;2023-05-24T16:32:52;22.00;44.10
11597;DHT22;5854;48.072;16.286;2023-05-24T16:35:19;21.70;44.70
11597;DHT22;5854;48.072;16.286;2023-05-24T16:37:46;21.50;43.60
11597;DHT22;5854;48.072;16.286;2023-05-24T16:40:15;21.40;45.60
11597;DHT22;5854;48.072;16.286;2023-05-24T16:42:42;21.40;45.80
11597;DHT22;5854;48.072;16.286;2023-05-24T16:45:10;21.60;46.00
11597;DHT22;5854;48.072;16.286;2023-05-24T16:47:37;21.70;45.30
11597;DHT22;5854;48.072;16.286;2023-05-24T16:50:08;21.90;44.80
11597;DHT22;5854;48.072;16.286;2023-05-24T16:52:39;21.90;45.00
11597;DHT22;5854;48.072;16.286;2023-05-24T16:55:07;21.90;43.50
11597;DHT22;5854;48.072;16.286;2023-05-24T16:57:36;21.90;43.30
11597;DHT22;5854;48.072;16.286;2023-05-24T17:00:04;21.70;43.50
11597;DHT22;5854;48.072;16.286;2023-05-24T17:02:35;21.60;44.10
11597;DHT22;5854;48.072;16.286;2023-05-24T17:05:05;21.60;44.50
11597;DHT22;5854;48.072;16.286;2023-05-24T17:07:33;21.50;44.90
11597;DHT22;5854;48.072;16.286;2023-05-24T17:10:00;21.50;44.60
11597;DHT22;5854;48.072;16.286;2023-05-24T17:12:27;21.70;44.40
11597;DHT22;5854;48.072;16.286;2023-05-24T17:14:56;21.70;44.90
11597;DHT22;5854;48.072;16.286;2023-05-24T17:17:23;21.70;45.30
11597;DHT22;5854;48.072;16.286;2023-05-24T17:19:56;21.90;45.10
11597;DHT22;5854;48.072;16.286;2023-05-24T17:22:26;21.90;45.20
11597;DHT22;5854;48.072;16.286;2023-05-24T19:53:56;19.90;54.70
11597;DHT22;5854;48.072;16.286;2023-05-24T19:56:25;20.00;54.50
11597;DHT22;5854;48.072;16.286;2023-05-24T19:59:08;20.00;54.60
11597;DHT22;5854;48.072;16.286;2023-05-24T20:01:37;19.80;53.50
11597;DHT22;5854;48.072;16.286;2023-05-24T20:06:42;19.30;55.70
11597;DHT22;5854;48.072;16.286;2023-05-24T20:09:10;19.30;56.00
11597;DHT22;5854;48.072;16.286;2023-05-24T20:11:56;19.30;55.70
11597;DHT22;5854;48.072;16.286;2023-05-24T20:14:28;19.30;54.20
11597;DHT22;5854;48.072;16.286;2023-05-24T20:16:56;19.10;55.40
11597;DHT22;5854;48.072;16.286;2023-05-24T20:19:23;19.10;55.90
11597;DHT22;5854;48.072;16.286;2023-05-24T20:21:52;19.00;56.30
11597;DHT22;5854;48.072;16.286;2023-05-24T20:24:19;19.10;55.80
